createdAt,value
2018-07-24T00:00:40.534Z,0.00
2018-07-24T00:01:40.528Z,0.00
2018-07-24T00:02:40.511Z,0.00
2018-07-24T00:03:40.499Z,0.00
2018-07-24T00:04:40.490Z,0.00
2018-07-24T00:05:40.485Z,0.00
2018-07-24T00:06:40.464Z,0.00
2018-07-24T00:07:40.455Z,0.00
2018-07-24T00:08:40.442Z,0.00
2018-07-24T00:09:40.430Z,0.00
2018-07-24T00:10:40.427Z,0.00
2018-07-24T00:11:40.407Z,0.00
2018-07-24T00:12:40.400Z,0.00
2018-07-24T00:13:40.383Z,0.00
2018-07-24T00:14:40.371Z,0.00
2018-07-24T00:15:40.362Z,0.00
2018-07-24T00:16:40.347Z,0.00
2018-07-24T00:17:40.335Z,0.00
2018-07-24T00:18:40.325Z,0.00
2018-07-24T00:19:40.311Z,0.00
2018-07-24T00:20:40.300Z,0.00
2018-07-24T00:21:40.288Z,0.00
2018-07-24T00:22:40.277Z,0.00
2018-07-24T00:23:40.273Z,0.00
2018-07-24T00:24:40.254Z,0.00
2018-07-24T00:25:40.241Z,0.00
2018-07-24T00:26:40.227Z,0.00
2018-07-24T00:27:40.218Z,0.00
2018-07-24T00:28:40.205Z,0.00
2018-07-24T00:29:40.193Z,0.00
2018-07-24T00:30:40.181Z,0.00
2018-07-24T00:31:40.172Z,0.00
2018-07-24T00:32:40.155Z,0.00
2018-07-24T00:33:40.145Z,0.00
2018-07-24T00:34:40.132Z,0.00
2018-07-24T00:35:40.121Z,0.00
2018-07-24T00:36:40.108Z,0.00
2018-07-24T00:37:40.095Z,0.00
2018-07-24T00:38:40.084Z,0.00
2018-07-24T00:39:40.076Z,0.00
2018-07-24T00:40:40.063Z,0.00
2018-07-24T00:41:40.048Z,0.00
2018-07-24T00:42:40.035Z,0.00
2018-07-24T00:43:40.023Z,0.00
2018-07-24T00:44:40.011Z,0.00
2018-07-24T00:45:40.007Z,0.00
2018-07-24T00:46:39.989Z,0.00
2018-07-24T00:47:40.047Z,0.00
2018-07-24T00:48:39.965Z,0.00
2018-07-24T00:49:39.950Z,0.00
2018-07-24T00:50:39.940Z,0.00
2018-07-24T00:51:39.925Z,0.00
2018-07-24T00:52:39.913Z,0.00
2018-07-24T00:53:39.907Z,0.00
2018-07-24T00:54:39.889Z,0.00
2018-07-24T00:55:39.881Z,0.00
2018-07-24T00:56:39.864Z,0.00
2018-07-24T00:57:39.856Z,0.00
2018-07-24T00:58:39.842Z,0.00
2018-07-24T00:59:39.828Z,0.00
2018-07-24T01:00:39.815Z,0.00
2018-07-24T01:01:39.804Z,0.00
2018-07-24T01:02:39.791Z,0.00
2018-07-24T01:03:39.779Z,0.00
2018-07-24T01:04:39.766Z,0.00
2018-07-24T01:05:39.755Z,0.00
2018-07-24T01:06:39.743Z,0.00
2018-07-24T01:07:39.732Z,0.00
2018-07-24T01:08:39.775Z,0.00
2018-07-24T01:09:39.731Z,0.00
2018-07-24T01:10:39.692Z,0.00
2018-07-24T01:11:39.679Z,0.00
2018-07-24T01:12:39.671Z,0.00
2018-07-24T01:13:39.655Z,0.00
2018-07-24T01:14:39.642Z,0.00
2018-07-24T01:15:39.628Z,0.00
2018-07-24T01:16:39.616Z,0.00
2018-07-24T01:17:39.606Z,0.00
2018-07-24T01:18:39.592Z,0.00
2018-07-24T01:19:39.580Z,0.00
2018-07-24T01:20:39.566Z,0.00
2018-07-24T01:21:39.553Z,0.00
2018-07-24T01:22:39.542Z,0.00
2018-07-24T01:23:39.532Z,0.00
2018-07-24T01:24:39.518Z,0.00
2018-07-24T01:25:39.503Z,0.00
2018-07-24T01:26:39.491Z,0.00
2018-07-24T01:27:39.478Z,0.00
2018-07-24T01:28:39.468Z,0.00
2018-07-24T01:29:39.453Z,0.00
2018-07-24T01:30:39.440Z,0.00
2018-07-24T01:31:39.429Z,0.00
2018-07-24T01:32:39.419Z,0.00
2018-07-24T01:33:39.404Z,0.00
2018-07-24T01:34:39.390Z,0.00
2018-07-24T01:35:39.381Z,0.00
2018-07-24T01:36:39.369Z,0.00
2018-07-24T01:37:39.353Z,0.00
2018-07-24T01:38:39.349Z,0.00
2018-07-24T01:39:39.326Z,0.00
2018-07-24T01:40:39.313Z,0.00
2018-07-24T01:41:39.300Z,0.00
2018-07-24T01:42:39.289Z,0.00
2018-07-24T01:43:39.275Z,0.00
2018-07-24T01:44:39.262Z,0.00
2018-07-24T01:45:39.252Z,0.00
2018-07-24T01:46:39.237Z,0.00
2018-07-24T01:47:39.226Z,0.00
2018-07-24T01:48:39.211Z,0.00
2018-07-24T01:49:39.198Z,0.00
2018-07-24T01:50:39.185Z,0.00
2018-07-24T01:51:39.172Z,0.00
2018-07-24T01:52:39.160Z,0.00
2018-07-24T01:53:39.148Z,0.00
2018-07-24T01:54:39.139Z,0.00
2018-07-24T01:55:39.121Z,0.00
2018-07-24T01:56:39.108Z,0.00
2018-07-24T01:57:39.094Z,0.00
2018-07-24T01:58:39.083Z,0.00
2018-07-24T01:59:39.070Z,0.00
2018-07-24T02:00:39.058Z,0.00
2018-07-24T02:01:39.048Z,0.00
2018-07-24T02:02:39.035Z,0.00
2018-07-24T02:03:39.017Z,0.00
2018-07-24T02:04:39.005Z,0.00
2018-07-24T02:05:38.992Z,0.00
2018-07-24T02:06:38.984Z,0.00
2018-07-24T02:07:38.966Z,0.00
2018-07-24T02:08:38.953Z,0.00
2018-07-24T02:09:38.940Z,0.00
2018-07-24T02:10:38.928Z,0.00
2018-07-24T02:11:38.916Z,0.00
2018-07-24T02:12:38.901Z,0.00
2018-07-24T02:13:38.887Z,0.00
2018-07-24T02:14:38.875Z,0.00
2018-07-24T02:15:38.862Z,0.00
2018-07-24T02:16:38.853Z,0.00
2018-07-24T02:17:38.838Z,0.00
2018-07-24T02:18:38.822Z,0.00
2018-07-24T02:19:38.809Z,0.00
2018-07-24T02:20:38.801Z,0.00
2018-07-24T02:21:38.791Z,0.00
2018-07-24T02:22:38.770Z,0.00
2018-07-24T02:23:38.757Z,0.00
2018-07-24T02:24:38.744Z,0.00
2018-07-24T02:25:38.734Z,0.00
2018-07-24T02:26:38.726Z,0.00
2018-07-24T02:27:38.705Z,0.00
2018-07-24T02:28:38.691Z,0.00
2018-07-24T02:29:38.678Z,0.00
2018-07-24T02:30:38.665Z,0.00
2018-07-24T02:31:38.653Z,0.00
2018-07-24T02:32:38.638Z,0.00
2018-07-24T02:33:38.627Z,0.00
2018-07-24T02:34:38.613Z,0.00
2018-07-24T02:35:38.601Z,4.00
2018-07-24T02:36:38.590Z,4.00
2018-07-24T02:37:38.573Z,0.00
2018-07-24T02:38:38.560Z,0.00
2018-07-24T02:39:38.551Z,4.00
2018-07-24T02:40:38.534Z,4.00
2018-07-24T02:41:38.525Z,4.00
2018-07-24T02:42:38.506Z,4.00
2018-07-24T02:43:38.494Z,4.00
2018-07-24T02:44:38.482Z,8.00
2018-07-24T02:45:38.470Z,4.00
2018-07-24T02:46:38.454Z,8.00
2018-07-24T02:47:38.441Z,8.00
2018-07-24T02:48:38.429Z,8.00
2018-07-24T02:49:38.414Z,12.00
2018-07-24T02:50:38.402Z,12.00
2018-07-24T02:51:38.387Z,12.00
2018-07-24T02:52:38.376Z,12.00
2018-07-24T02:53:38.413Z,16.00
2018-07-24T02:54:38.346Z,20.00
2018-07-24T02:55:38.336Z,20.00
2018-07-24T02:56:38.320Z,20.00
2018-07-24T02:57:38.307Z,28.00
2018-07-24T02:58:38.292Z,28.00
2018-07-24T02:59:38.281Z,32.00
2018-07-24T03:00:38.268Z,36.00
2018-07-24T03:01:38.253Z,40.00
2018-07-24T03:02:38.240Z,44.00
2018-07-24T03:03:38.228Z,48.00
2018-07-24T03:04:38.216Z,52.00
2018-07-24T03:05:38.199Z,60.00
2018-07-24T03:06:38.193Z,64.00
2018-07-24T03:07:38.171Z,72.00
2018-07-24T03:08:38.159Z,76.00
2018-07-24T03:09:38.151Z,84.00
2018-07-24T03:10:38.132Z,92.00
2018-07-24T03:11:38.118Z,100.00
2018-07-24T03:12:38.104Z,108.00
2018-07-24T03:13:38.095Z,116.00
2018-07-24T03:14:38.080Z,124.00
2018-07-24T03:15:38.064Z,132.00
2018-07-24T03:16:38.051Z,144.00
2018-07-24T03:17:38.040Z,156.00
2018-07-24T03:18:38.026Z,160.00
2018-07-24T03:19:38.011Z,172.00
2018-07-24T03:20:38.002Z,180.00
2018-07-24T03:21:37.984Z,196.00
2018-07-24T03:22:37.971Z,204.00
2018-07-24T03:23:37.956Z,216.00
2018-07-24T03:24:37.944Z,224.00
2018-07-24T03:25:37.930Z,240.00
2018-07-24T03:26:37.916Z,252.00
2018-07-24T03:27:37.902Z,264.00
2018-07-24T03:28:37.889Z,276.00
2018-07-24T03:29:37.876Z,288.00
2018-07-24T03:30:37.864Z,304.00
2018-07-24T03:31:37.852Z,312.00
2018-07-24T03:32:37.837Z,328.00
2018-07-24T03:33:37.822Z,340.00
2018-07-24T03:34:37.805Z,352.00
2018-07-24T03:35:37.793Z,368.00
2018-07-24T03:36:37.782Z,376.00
2018-07-24T03:37:37.766Z,392.00
2018-07-24T03:38:37.753Z,404.00
2018-07-24T03:39:37.749Z,420.00
2018-07-24T03:40:37.725Z,428.00
2018-07-24T03:41:37.711Z,440.00
2018-07-24T03:42:37.701Z,456.00
2018-07-24T03:43:37.686Z,468.00
2018-07-24T03:44:37.670Z,480.00
2018-07-24T03:45:37.661Z,492.00
2018-07-24T03:46:37.642Z,504.00
2018-07-24T03:47:37.634Z,516.00
2018-07-24T03:48:37.620Z,532.00
2018-07-24T03:49:37.607Z,544.00
2018-07-24T03:50:37.590Z,556.00
2018-07-24T03:51:37.575Z,564.00
2018-07-24T03:52:37.561Z,576.00
2018-07-24T03:53:37.550Z,588.00
2018-07-24T03:54:37.537Z,600.00
2018-07-24T03:55:37.526Z,612.00
2018-07-24T03:56:37.511Z,624.00
2018-07-24T03:57:37.496Z,636.00
2018-07-24T03:58:37.481Z,648.00
2018-07-24T03:59:37.465Z,656.00
2018-07-24T04:00:37.458Z,672.00
2018-07-24T04:01:37.440Z,680.00
2018-07-24T04:02:37.425Z,692.00
2018-07-24T04:03:37.413Z,704.00
2018-07-24T04:04:37.401Z,712.00
2018-07-24T04:05:37.385Z,724.00
2018-07-24T04:06:37.369Z,736.00
2018-07-24T04:07:37.361Z,740.00
2018-07-24T04:08:37.345Z,752.00
2018-07-24T04:09:37.329Z,764.00
2018-07-24T04:10:37.315Z,772.00
2018-07-24T04:11:37.302Z,784.00
2018-07-24T04:12:37.290Z,788.00
2018-07-24T04:13:37.278Z,800.00
2018-07-24T04:14:37.259Z,812.00
2018-07-24T04:15:37.248Z,816.00
2018-07-24T04:16:37.234Z,828.00
2018-07-24T04:17:37.221Z,840.00
2018-07-24T04:18:37.209Z,848.00
2018-07-24T04:19:37.202Z,856.00
2018-07-24T04:20:37.179Z,868.00
2018-07-24T04:21:37.167Z,876.00
2018-07-24T04:22:37.152Z,884.00
2018-07-24T04:23:37.139Z,892.00
2018-07-24T04:24:37.123Z,904.00
2018-07-24T04:25:37.111Z,908.00
2018-07-24T04:26:37.097Z,920.00
2018-07-24T04:27:37.090Z,928.00
2018-07-24T04:28:37.069Z,936.00
2018-07-24T04:29:37.063Z,944.00
2018-07-24T04:30:37.043Z,952.00
2018-07-24T04:31:37.030Z,960.00
2018-07-24T04:32:37.015Z,968.00
2018-07-24T04:33:37.005Z,976.00
2018-07-24T04:34:36.988Z,984.00
2018-07-24T04:35:36.975Z,992.00
2018-07-24T04:36:36.959Z,1004.00
2018-07-24T04:37:36.948Z,1008.00
2018-07-24T04:38:36.933Z,1016.00
2018-07-24T04:39:36.918Z,1024.00
2018-07-24T04:40:36.909Z,1032.00
2018-07-24T04:41:36.894Z,1040.00
2018-07-24T04:42:36.877Z,1048.00
2018-07-24T04:43:36.865Z,1056.00
2018-07-24T04:44:36.855Z,1068.00
2018-07-24T04:45:36.839Z,1076.00
2018-07-24T04:46:36.823Z,1084.00
2018-07-24T04:47:36.811Z,1092.00
2018-07-24T04:48:36.803Z,1100.00
2018-07-24T04:49:36.787Z,1112.00
2018-07-24T04:50:36.768Z,1116.00
2018-07-24T04:51:36.756Z,1124.00
2018-07-24T04:52:36.742Z,1132.00
2018-07-24T04:53:36.730Z,1140.00
2018-07-24T04:54:36.721Z,1148.00
2018-07-24T04:55:36.703Z,1152.00
2018-07-24T04:56:36.690Z,1160.00
2018-07-24T04:57:36.683Z,1164.00
2018-07-24T04:58:36.665Z,1176.00
2018-07-24T04:59:36.647Z,1176.00
2018-07-24T05:00:36.635Z,1188.00
2018-07-24T05:01:36.625Z,1192.00
2018-07-24T05:02:36.629Z,1196.00
2018-07-24T05:03:36.596Z,1204.00
2018-07-24T05:04:36.583Z,1212.00
2018-07-24T05:05:36.568Z,1216.00
2018-07-24T05:06:36.592Z,1224.00
2018-07-24T05:07:36.541Z,1232.00
2018-07-24T05:08:36.531Z,1236.00
2018-07-24T05:09:36.572Z,1244.00
2018-07-24T05:10:36.607Z,1252.00
2018-07-24T05:11:36.487Z,1260.00
2018-07-24T05:12:36.473Z,1264.00
2018-07-24T05:13:36.461Z,1276.00
2018-07-24T05:14:36.450Z,1284.00
2018-07-24T05:15:36.440Z,1296.00
2018-07-24T05:16:36.432Z,1316.00
2018-07-24T05:17:36.408Z,1328.00
2018-07-24T05:18:36.393Z,1360.00
2018-07-24T05:19:36.382Z,1388.00
2018-07-24T05:20:36.372Z,1388.00
2018-07-24T05:21:36.355Z,1416.00
2018-07-24T05:22:36.350Z,1360.00
2018-07-24T05:23:36.372Z,1360.00
2018-07-24T05:24:36.320Z,1364.00
2018-07-24T05:25:36.303Z,1368.00
2018-07-24T05:26:36.289Z,1376.00
2018-07-24T05:27:36.278Z,1388.00
2018-07-24T05:28:36.264Z,1396.00
2018-07-24T05:29:36.254Z,1404.00
2018-07-24T05:30:36.238Z,1412.00
2018-07-24T05:31:36.226Z,1420.00
2018-07-24T05:32:36.219Z,1428.00
2018-07-24T05:33:36.200Z,1436.00
2018-07-24T05:34:36.187Z,1448.00
2018-07-24T05:35:36.175Z,1456.00
2018-07-24T05:36:36.161Z,1464.00
2018-07-24T05:37:36.149Z,1476.00
2018-07-24T05:38:36.139Z,1500.00
2018-07-24T05:39:36.122Z,1516.00
2018-07-24T05:40:36.113Z,1520.00
2018-07-24T05:41:36.098Z,1512.00
2018-07-24T05:42:36.085Z,1520.00
2018-07-24T05:43:36.072Z,1532.00
2018-07-24T05:44:36.063Z,1536.00
2018-07-24T05:45:36.046Z,1544.00
2018-07-24T05:46:36.032Z,1552.00
2018-07-24T05:47:36.021Z,1556.00
2018-07-24T05:48:36.043Z,1564.00
2018-07-24T05:49:35.999Z,1568.00
2018-07-24T05:50:35.991Z,1576.00
2018-07-24T05:51:35.967Z,1588.00
2018-07-24T05:52:35.958Z,1596.00
2018-07-24T05:53:35.945Z,1604.00
2018-07-24T05:54:35.932Z,1628.00
2018-07-24T05:55:35.922Z,1644.00
2018-07-24T05:56:35.907Z,1672.00
2018-07-24T05:57:35.896Z,1660.00
2018-07-24T05:58:35.895Z,1696.00
2018-07-24T05:59:35.872Z,1684.00
2018-07-24T06:00:35.860Z,1676.00
2018-07-24T06:01:35.848Z,1680.00
2018-07-24T06:02:35.834Z,1688.00
2018-07-24T06:03:35.822Z,1696.00
2018-07-24T06:04:35.812Z,1704.00
2018-07-24T06:05:35.802Z,1716.00
2018-07-24T06:06:35.788Z,1724.00
2018-07-24T06:07:35.773Z,1732.00
2018-07-24T06:08:35.759Z,1740.00
2018-07-24T06:09:35.749Z,1748.00
2018-07-24T06:10:35.736Z,1784.00
2018-07-24T06:11:35.731Z,1768.00
2018-07-24T06:12:35.711Z,1780.00
2018-07-24T06:13:35.700Z,1796.00
2018-07-24T06:14:35.688Z,1804.00
2018-07-24T06:15:35.673Z,1816.00
2018-07-24T06:16:35.687Z,1832.00
2018-07-24T06:17:35.651Z,1848.00
2018-07-24T06:18:35.645Z,1860.00
2018-07-24T06:19:35.628Z,1872.00
2018-07-24T06:20:35.616Z,1880.00
2018-07-24T06:21:35.610Z,1892.00
2018-07-24T06:22:35.593Z,1904.00
2018-07-24T06:23:35.603Z,1912.00
2018-07-24T06:24:35.568Z,1928.00
2018-07-24T06:25:35.559Z,1944.00
2018-07-24T06:26:35.548Z,1948.00
2018-07-24T06:27:35.534Z,1960.00
2018-07-24T06:28:35.521Z,1972.00
2018-07-24T06:29:35.514Z,1984.00
2018-07-24T06:30:35.499Z,1992.00
2018-07-24T06:31:35.486Z,2020.00
2018-07-24T06:32:35.474Z,2048.00
2018-07-24T06:33:35.463Z,2044.00
2018-07-24T06:34:35.450Z,2096.00
2018-07-24T06:35:35.440Z,2056.00
2018-07-24T06:36:35.438Z,2072.00
2018-07-24T06:37:35.417Z,2084.00
2018-07-24T06:38:35.404Z,2100.00
2018-07-24T06:39:35.402Z,2112.00
2018-07-24T06:40:35.383Z,2124.00
2018-07-24T06:41:35.371Z,2152.00
2018-07-24T06:42:35.360Z,2148.00
2018-07-24T06:43:35.352Z,2160.00
2018-07-24T06:44:35.338Z,2172.00
2018-07-24T06:45:35.325Z,2184.00
2018-07-24T06:46:35.314Z,2204.00
2018-07-24T06:47:35.300Z,2212.00
2018-07-24T06:48:35.291Z,2228.00
2018-07-24T06:49:35.285Z,2244.00
2018-07-24T06:50:35.273Z,2260.00
2018-07-24T06:51:35.344Z,2268.00
2018-07-24T06:52:35.247Z,2284.00
2018-07-24T06:53:35.235Z,2300.00
2018-07-24T06:54:35.223Z,2320.00
2018-07-24T06:55:35.214Z,2340.00
2018-07-24T06:56:35.221Z,2360.00
2018-07-24T06:57:35.191Z,2380.00
2018-07-24T06:58:35.179Z,2396.00
2018-07-24T06:59:35.170Z,2412.00
2018-07-24T07:00:35.160Z,2428.00
2018-07-24T07:01:35.151Z,2444.00
2018-07-24T07:02:35.138Z,2468.00
2018-07-24T07:03:35.126Z,2488.00
2018-07-24T07:04:35.115Z,2508.00
2018-07-24T07:05:35.106Z,2532.00
2018-07-24T07:06:35.094Z,2556.00
2018-07-24T07:07:35.095Z,2588.00
2018-07-24T07:08:35.073Z,2612.00
2018-07-24T07:09:35.066Z,2644.00
2018-07-24T07:10:35.062Z,2676.00
2018-07-24T07:11:35.044Z,2712.00
2018-07-24T07:12:35.034Z,2740.00
2018-07-24T07:13:35.056Z,2768.00
2018-07-24T07:14:35.012Z,2796.00
2018-07-24T07:15:35.000Z,2820.00
2018-07-24T07:16:34.993Z,2844.00
2018-07-24T07:17:34.980Z,2872.00
2018-07-24T07:18:34.968Z,2896.00
2018-07-24T07:19:34.957Z,2920.00
2018-07-24T07:20:34.980Z,2948.00
2018-07-24T07:21:34.939Z,2968.00
2018-07-24T07:22:34.929Z,2992.00
2018-07-24T07:23:34.920Z,3012.00
2018-07-24T07:24:34.908Z,3036.00
2018-07-24T07:25:34.899Z,3064.00
2018-07-24T07:26:34.888Z,3092.00
2018-07-24T07:27:34.879Z,3124.00
2018-07-24T07:28:34.877Z,3152.00
2018-07-24T07:29:34.864Z,3180.00
2018-07-24T07:30:34.849Z,3200.00
2018-07-24T07:31:34.839Z,3224.00
2018-07-24T07:32:34.836Z,3256.00
2018-07-24T07:33:34.822Z,3284.00
2018-07-24T07:34:34.809Z,2352.00
2018-07-24T07:35:34.800Z,2364.00
2018-07-24T07:36:34.792Z,2384.00
2018-07-24T07:37:34.782Z,2396.00
2018-07-24T07:38:34.771Z,2400.00
2018-07-24T07:39:34.767Z,2420.00
2018-07-24T07:40:34.754Z,2436.00
2018-07-24T07:41:34.744Z,2452.00
2018-07-24T07:42:34.734Z,2472.00
2018-07-24T07:43:34.729Z,2500.00
2018-07-24T07:44:34.767Z,2528.00
2018-07-24T07:45:34.711Z,2552.00
2018-07-24T07:46:34.696Z,2592.00
2018-07-24T07:47:34.688Z,2632.00
2018-07-24T07:48:34.680Z,2660.00
2018-07-24T07:49:34.670Z,2692.00
2018-07-24T07:50:34.668Z,2704.00
2018-07-24T07:51:34.689Z,2736.00
2018-07-24T07:52:34.729Z,2780.00
2018-07-24T07:53:34.635Z,2848.00
2018-07-24T07:54:34.625Z,2828.00
2018-07-24T07:55:34.617Z,2832.00
2018-07-24T07:56:34.613Z,2836.00
2018-07-24T07:57:34.604Z,2848.00
2018-07-24T07:58:34.594Z,2864.00
2018-07-24T07:59:34.582Z,2876.00
2018-07-24T08:00:34.579Z,2900.00
2018-07-24T08:01:34.567Z,2916.00
2018-07-24T08:02:34.612Z,2940.00
2018-07-24T08:03:34.545Z,2996.00
2018-07-24T08:04:34.538Z,3040.00
2018-07-24T08:05:34.529Z,3056.00
2018-07-24T08:06:34.525Z,3060.00
2018-07-24T08:07:34.511Z,3052.00
2018-07-24T08:08:34.503Z,3084.00
2018-07-24T08:09:34.497Z,3144.00
2018-07-24T08:10:34.487Z,3160.00
2018-07-24T08:11:34.478Z,3148.00
2018-07-24T08:12:34.473Z,3164.00
2018-07-24T08:13:34.462Z,3268.00
2018-07-24T08:14:34.453Z,3292.00
2018-07-24T08:15:34.448Z,3296.00
2018-07-24T08:16:34.441Z,3268.00
2018-07-24T08:17:34.432Z,3312.00
2018-07-24T08:18:34.429Z,3476.00
2018-07-24T08:19:34.414Z,3576.00
2018-07-24T08:20:34.404Z,3672.00
2018-07-24T08:21:34.401Z,3664.00
2018-07-24T08:22:34.393Z,3688.00
2018-07-24T08:23:34.379Z,3760.00
2018-07-24T08:24:34.371Z,3800.00
2018-07-24T08:25:34.363Z,3772.00
2018-07-24T08:26:34.362Z,3760.00
2018-07-24T08:27:34.346Z,3696.00
2018-07-24T08:28:34.340Z,3760.00
2018-07-24T08:29:34.331Z,3840.00
2018-07-24T08:30:34.323Z,3848.00
2018-07-24T08:31:34.317Z,3892.00
2018-07-24T08:32:34.323Z,3824.00
2018-07-24T08:33:34.333Z,3788.00
2018-07-24T08:34:34.291Z,3744.00
2018-07-24T08:35:34.285Z,3692.00
2018-07-24T08:36:34.277Z,3720.00
2018-07-24T08:37:34.273Z,3708.00
2018-07-24T08:38:34.262Z,3676.00
2018-07-24T08:39:34.253Z,3704.00
2018-07-24T08:40:34.245Z,3740.00
2018-07-24T08:41:34.240Z,3748.00
2018-07-24T08:42:34.239Z,3768.00
2018-07-24T08:43:34.223Z,3688.00
2018-07-24T08:44:34.217Z,3840.00
2018-07-24T08:45:34.211Z,3908.00
2018-07-24T08:46:34.200Z,3852.00
2018-07-24T08:47:34.199Z,3880.00
2018-07-24T08:48:34.190Z,3852.00
2018-07-24T08:49:34.177Z,3916.00
2018-07-24T08:50:34.170Z,4200.00
2018-07-24T08:51:34.164Z,4128.00
2018-07-24T08:52:34.275Z,3856.00
2018-07-24T08:53:34.392Z,3792.00
2018-07-24T08:54:34.297Z,3948.00
2018-07-24T08:55:34.524Z,4084.00
2018-07-24T08:56:34.127Z,4244.00
2018-07-24T08:57:34.170Z,4152.00
2018-07-24T08:58:34.112Z,3696.00
2018-07-24T08:59:34.105Z,3340.00
2018-07-24T09:00:34.166Z,4248.00
2018-07-24T09:01:34.091Z,4240.00
2018-07-24T09:02:34.084Z,4164.00
2018-07-24T09:03:34.180Z,2116.00
2018-07-24T09:04:34.069Z,1928.00
2018-07-24T09:05:34.062Z,1904.00
2018-07-24T09:06:34.055Z,1940.00
2018-07-24T09:07:34.055Z,2096.00
2018-07-24T09:08:34.042Z,3764.00
2018-07-24T09:09:34.034Z,4056.00
2018-07-24T09:10:34.028Z,3428.00
2018-07-24T09:11:34.020Z,2708.00
2018-07-24T09:12:34.016Z,2176.00
2018-07-24T09:13:34.009Z,3928.00
2018-07-24T09:14:33.999Z,4392.00
2018-07-24T09:15:33.997Z,4152.00
2018-07-24T09:16:33.985Z,4340.00
2018-07-24T09:17:33.978Z,4548.00
2018-07-24T09:18:33.971Z,4512.00
2018-07-24T09:19:33.966Z,4576.00
2018-07-24T09:20:33.957Z,4668.00
2018-07-24T09:21:33.955Z,4740.00
2018-07-24T09:22:33.944Z,4804.00
2018-07-24T09:23:33.938Z,5188.00
2018-07-24T09:24:33.931Z,5704.00
2018-07-24T09:25:33.924Z,5900.00
2018-07-24T09:26:33.915Z,5860.00
2018-07-24T09:27:33.909Z,5740.00
2018-07-24T09:28:33.904Z,6244.00
2018-07-24T09:29:33.898Z,6636.00
2018-07-24T09:30:33.919Z,6436.00
2018-07-24T09:31:33.887Z,6424.00
2018-07-24T09:32:33.883Z,6608.00
2018-07-24T09:33:33.870Z,6860.00
2018-07-24T09:34:33.864Z,6284.00
2018-07-24T09:35:33.858Z,6016.00
2018-07-24T09:36:33.856Z,5768.00
2018-07-24T09:37:33.851Z,6076.00
2018-07-24T09:38:33.841Z,5808.00
2018-07-24T09:39:33.840Z,5716.00
2018-07-24T09:40:33.901Z,5716.00
2018-07-24T09:41:33.829Z,5784.00
2018-07-24T09:42:33.820Z,5524.00
2018-07-24T09:43:33.812Z,5244.00
2018-07-24T09:44:33.818Z,5480.00
2018-07-24T09:45:33.800Z,5552.00
2018-07-24T09:46:33.789Z,4028.00
2018-07-24T09:47:33.784Z,3568.00
2018-07-24T09:48:33.779Z,3728.00
2018-07-24T09:49:33.784Z,3296.00
2018-07-24T09:50:33.774Z,2796.00
2018-07-24T09:51:33.762Z,2628.00
2018-07-24T09:52:33.756Z,2536.00
2018-07-24T09:53:33.751Z,2624.00
2018-07-24T09:54:33.754Z,4408.00
2018-07-24T09:55:33.741Z,4596.00
2018-07-24T09:56:33.732Z,4816.00
2018-07-24T09:57:33.727Z,2956.00
2018-07-24T09:58:33.719Z,2904.00
2018-07-24T09:59:33.717Z,5056.00
2018-07-24T10:00:33.709Z,3980.00
2018-07-24T10:01:33.702Z,3484.00
2018-07-24T10:02:33.697Z,3680.00
2018-07-24T10:03:33.692Z,3768.00
2018-07-24T10:04:33.686Z,4152.00
2018-07-24T10:05:33.683Z,3952.00
2018-07-24T10:06:33.675Z,4720.00
2018-07-24T10:07:33.666Z,4284.00
2018-07-24T10:08:33.666Z,4728.00
2018-07-24T10:09:33.657Z,5724.00
2018-07-24T10:10:33.650Z,4532.00
2018-07-24T10:11:33.644Z,3600.00
2018-07-24T10:12:33.652Z,3880.00
2018-07-24T10:13:33.634Z,4912.00
2018-07-24T10:14:33.633Z,6196.00
2018-07-24T10:15:33.622Z,5892.00
2018-07-24T10:16:33.684Z,5904.00
2018-07-24T10:17:33.611Z,5132.00
2018-07-24T10:18:33.602Z,5412.00
2018-07-24T10:19:33.597Z,5172.00
2018-07-24T10:20:33.595Z,4724.00
2018-07-24T10:21:33.587Z,4492.00
2018-07-24T10:22:33.577Z,4208.00
2018-07-24T10:23:33.578Z,5108.00
2018-07-24T10:24:33.645Z,4748.00
2018-07-24T10:25:33.576Z,4844.00
2018-07-24T10:26:33.555Z,5636.00
2018-07-24T10:27:33.551Z,6320.00
2018-07-24T10:28:33.546Z,5660.00
2018-07-24T10:29:33.539Z,5780.00
2018-07-24T10:30:33.533Z,6328.00
2018-07-24T10:31:33.529Z,6612.00
2018-07-24T10:32:33.521Z,6992.00
2018-07-24T10:33:33.516Z,6888.00
2018-07-24T10:34:33.508Z,6508.00
2018-07-24T10:35:33.505Z,5992.00
2018-07-24T10:36:33.584Z,5748.00
2018-07-24T10:37:33.494Z,5528.00
2018-07-24T10:38:33.488Z,5488.00
2018-07-24T10:39:33.481Z,5448.00
2018-07-24T10:40:33.481Z,5416.00
2018-07-24T10:41:33.473Z,5504.00
2018-07-24T10:42:33.465Z,5504.00
2018-07-24T10:43:33.457Z,5464.00
2018-07-24T10:44:33.478Z,5384.00
2018-07-24T10:45:33.451Z,5324.00
2018-07-24T10:46:33.447Z,5300.00
2018-07-24T10:47:33.439Z,5248.00
2018-07-24T10:48:33.430Z,5236.00
2018-07-24T10:49:33.429Z,5268.00
2018-07-24T10:50:33.428Z,5352.00
2018-07-24T10:51:33.440Z,5496.00
2018-07-24T10:52:33.428Z,5440.00
2018-07-24T10:53:33.403Z,5328.00
2018-07-24T10:54:33.399Z,5184.00
2018-07-24T10:55:33.397Z,5636.00
2018-07-24T10:56:33.388Z,6208.00
2018-07-24T10:57:33.381Z,6780.00
2018-07-24T10:58:33.376Z,6656.00
2018-07-24T10:59:33.373Z,6636.00
2018-07-24T11:00:33.366Z,6564.00
2018-07-24T11:01:33.360Z,6808.00
2018-07-24T11:02:33.356Z,7312.00
2018-07-24T11:03:33.350Z,5324.00
2018-07-24T11:04:33.344Z,5620.00
2018-07-24T11:05:33.345Z,6880.00
2018-07-24T11:06:33.334Z,5404.00
2018-07-24T11:07:33.329Z,4832.00
2018-07-24T11:08:33.330Z,5112.00
2018-07-24T11:09:33.319Z,4708.00
2018-07-24T11:10:33.314Z,4816.00
2018-07-24T11:11:33.310Z,4916.00
2018-07-24T11:12:33.307Z,5092.00
2018-07-24T11:13:33.298Z,5236.00
2018-07-24T11:14:33.297Z,5236.00
2018-07-24T11:15:33.297Z,5076.00
2018-07-24T11:16:33.331Z,5008.00
2018-07-24T11:17:33.279Z,5356.00
2018-07-24T11:18:33.274Z,5368.00
2018-07-24T11:19:33.268Z,5872.00
2018-07-24T11:20:33.263Z,6188.00
2018-07-24T11:21:33.260Z,8356.00
2018-07-24T11:22:33.362Z,7300.00
2018-07-24T11:23:33.252Z,7224.00
2018-07-24T11:24:33.242Z,6936.00
2018-07-24T11:25:33.248Z,7208.00
2018-07-24T11:26:33.232Z,7688.00
2018-07-24T11:27:33.229Z,7644.00
2018-07-24T11:28:33.224Z,7972.00
2018-07-24T11:29:33.223Z,8440.00
2018-07-24T11:30:33.215Z,7956.00
2018-07-24T11:31:33.210Z,6568.00
2018-07-24T11:32:33.213Z,7048.00
2018-07-24T11:33:33.284Z,7196.00
2018-07-24T11:34:33.192Z,6724.00
2018-07-24T11:35:33.257Z,6512.00
2018-07-24T11:36:33.185Z,6560.00
2018-07-24T11:37:33.182Z,6340.00
2018-07-24T11:38:33.189Z,6476.00
2018-07-24T11:39:33.168Z,6568.00
2018-07-24T11:40:33.164Z,6836.00
2018-07-24T11:41:33.160Z,7116.00
2018-07-24T11:42:33.161Z,7376.00
2018-07-24T11:43:33.148Z,7308.00
2018-07-24T11:44:33.145Z,7100.00
2018-07-24T11:45:33.140Z,6892.00
2018-07-24T11:46:33.166Z,6836.00
2018-07-24T11:47:33.129Z,6744.00
2018-07-24T11:48:33.125Z,5444.00
2018-07-24T11:49:33.122Z,5064.00
2018-07-24T11:50:33.117Z,5076.00
2018-07-24T11:51:33.170Z,5120.00
2018-07-24T11:52:33.104Z,5236.00
2018-07-24T11:53:33.102Z,5364.00
2018-07-24T11:54:33.095Z,5596.00
2018-07-24T11:55:33.101Z,5884.00
2018-07-24T11:56:33.096Z,6132.00
2018-07-24T11:57:33.125Z,6432.00
2018-07-24T11:58:33.126Z,6768.00
2018-07-24T11:59:33.080Z,6576.00
2018-07-24T12:00:33.067Z,6512.00
2018-07-24T12:01:33.062Z,6808.00
2018-07-24T12:02:33.057Z,7492.00
2018-07-24T12:03:33.084Z,7888.00
2018-07-24T12:04:33.049Z,7944.00
2018-07-24T12:05:33.043Z,8716.00
2018-07-24T12:06:33.039Z,9728.00
2018-07-24T12:07:33.036Z,10464.00
2018-07-24T12:08:33.032Z,16164.00
2018-07-24T12:09:33.023Z,42176.00
2018-07-24T12:10:33.018Z,31200.00
2018-07-24T12:11:33.079Z,20064.00
2018-07-24T12:12:33.006Z,17152.00
2018-07-24T12:13:33.003Z,19424.00
2018-07-24T12:14:33.001Z,19424.00
2018-07-24T12:15:33.001Z,62880.00
2018-07-24T12:16:33.010Z,85376.00
2018-07-24T12:17:32.989Z,67296.00
2018-07-24T12:18:32.998Z,98816.00
2018-07-24T12:19:32.991Z,90688.00
2018-07-24T12:20:32.975Z,73344.00
2018-07-24T12:21:32.973Z,26912.00
2018-07-24T12:22:32.973Z,26112.00
2018-07-24T12:23:32.966Z,27456.00
2018-07-24T12:24:32.963Z,7940.00